Time;durP1;ratioP1;P1;durP2;ratioP2;P2;SDS_P1;SDS_P2;PMS_P1;PMS_P2;Temp;Humidity;BMP_temperature;BMP_pressure;BME280_temperature;BME280_humidity;BME280_pressure;Samples;Min_cycle;Max_cycle;Signal;HPM_P1;HPM_P2
2022/05/11 00:03:02;;;;;;;10.40;5.60;;;;;;;11.18;100.00;99688.00;5122604;27;20055;-52
2022/05/11 00:05:46;;;;;;;10.57;6.10;;;;;;;11.28;100.00;99688.56;5125887;27;20059;-51
2022/05/11 00:08:31;;;;;;;13.18;7.00;;;;;;;11.31;100.00;99683.25;5122797;27;20035;-53
2022/05/11 00:11:15;;;;;;;11.85;6.07;;;;;;;11.42;100.00;99686.41;5122263;27;20048;-51
2022/05/11 00:14:00;;;;;;;12.80;6.32;;;;;;;11.49;100.00;99680.06;5124927;27;20051;-52
2022/05/11 00:16:45;;;;;;;9.27;5.32;;;;;;;11.47;100.00;99684.50;5123006;27;20476;-51
2022/05/11 00:19:29;;;;;;;11.40;5.78;;;;;;;11.53;100.00;99675.59;5110911;27;20047;-51
2022/05/11 00:22:14;;;;;;;8.27;5.65;;;;;;;11.57;100.00;99680.72;5123750;27;20039;-51
2022/05/11 00:24:58;;;;;;;8.57;5.20;;;;;;;11.66;100.00;99675.16;5122869;27;20610;-52
2022/05/11 00:27:43;;;;;;;8.15;4.97;;;;;;;11.69;100.00;99679.44;5121518;27;20047;-51
2022/05/11 00:30:29;;;;;;;8.70;5.78;;;;;;;11.69;100.00;99674.19;5123170;27;20052;-53
2022/05/11 00:33:14;;;;;;;9.38;4.97;;;;;;;11.69;100.00;99666.31;5120539;27;20060;-53
2022/05/11 00:35:59;;;;;;;15.00;6.40;;;;;;;11.72;100.00;99671.47;5108846;27;20043;-51
2022/05/11 00:38:45;;;;;;;10.25;6.00;;;;;;;11.75;100.00;99667.91;5110537;27;20793;-54
2022/05/11 00:41:30;;;;;;;14.80;7.32;;;;;;;11.78;100.00;99667.81;5121801;27;20047;-53
2022/05/11 00:44:16;;;;;;;20.35;7.65;;;;;;;11.83;100.00;99668.50;5125362;27;20050;-51
2022/05/11 00:47:07;;;;;;;18.00;8.10;;;;;;;11.80;100.00;99661.59;5122124;27;20472;-52
2022/05/11 00:49:58;;;;;;;16.23;7.32;;;;;;;11.83;100.00;99658.00;5122979;27;20334;-52
2022/05/11 00:52:45;;;;;;;15.27;7.63;;;;;;;11.92;100.00;99666.47;5120600;27;20055;-51
2022/05/11 00:55:37;;;;;;;13.75;6.53;;;;;;;11.90;100.00;99656.94;5104443;27;20051;-53
2022/05/11 00:58:27;;;;;;;12.85;6.38;;;;;;;11.97;100.00;99658.47;5121288;27;20942;-52
2022/05/11 01:01:12;;;;;;;13.55;6.55;;;;;;;11.98;100.00;99648.81;5122632;27;20043;-53
2022/05/11 01:04:12;;;;;;;12.75;6.30;;;;;;;12.06;100.00;99646.81;5122279;27;20060;-52
2022/05/11 01:07:00;;;;;;;13.27;6.68;;;;;;;12.02;100.00;99653.03;5121920;27;20055;-51
2022/05/11 01:09:44;;;;;;;10.95;6.40;;;;;;;12.04;100.00;99652.09;5123982;27;20047;-51
2022/05/11 01:12:35;;;;;;;15.13;5.78;;;;;;;12.04;100.00;99648.63;5122957;27;20050;-53
2022/05/11 01:15:20;;;;;;;9.93;6.35;;;;;;;12.03;100.00;99649.53;5122936;27;20181;-51
2022/05/11 01:18:07;;;;;;;11.18;6.00;;;;;;;12.06;100.00;99652.06;5121798;27;20054;-51
2022/05/11 01:20:52;;;;;;;9.77;5.60;;;;;;;12.03;100.00;99649.53;5124010;27;20066;-51
2022/05/11 01:23:52;;;;;;;7.18;4.68;;;;;;;12.03;100.00;99647.75;5122663;27;20047;-51
2022/05/11 01:26:36;;;;;;;7.90;5.20;;;;;;;12.04;100.00;99651.25;5116321;27;20607;-52
2022/05/11 01:29:21;;;;;;;7.53;5.78;;;;;;;12.11;100.00;99640.47;5106578;27;20051;-51
2022/05/11 01:32:05;;;;;;;7.88;4.70;;;;;;;12.09;100.00;99633.53;5120848;27;20407;-51
2022/05/11 01:34:56;;;;;;;9.63;5.20;;;;;;;12.10;100.00;99636.13;5124724;27;20041;-53
2022/05/11 01:37:49;;;;;;;7.85;5.18;;;;;;;12.14;100.00;99629.88;5124751;27;20043;-51
2022/05/11 01:40:33;;;;;;;;;;;;;;;12.19;100.00;99626.22;5120929;27;20421;-52
2022/05/11 01:43:31;;;;;;;7.97;5.38;;;;;;;12.12;100.00;99621.22;5122717;27;20001;-52
2022/05/11 01:46:16;;;;;;;6.45;4.63;;;;;;;12.19;100.00;99631.47;5122486;27;20055;-53
2022/05/11 01:49:01;;;;;;;6.78;4.38;;;;;;;12.14;100.00;99627.25;5120852;27;20072;-53
2022/05/11 01:51:46;;;;;;;7.90;4.85;;;;;;;12.07;100.00;99617.00;5119196;27;20070;-53
2022/05/11 01:54:30;;;;;;;9.02;5.03;;;;;;;11.99;100.00;99614.66;5122240;27;20142;-52
2022/05/11 01:57:14;;;;;;;8.38;5.18;;;;;;;12.08;100.00;99621.34;5121576;27;20473;-52
2022/05/11 01:59:59;;;;;;;8.10;5.20;;;;;;;12.00;100.00;99608.50;5123111;27;20051;-52
2022/05/11 02:02:43;;;;;;;8.52;5.45;;;;;;;11.87;100.00;99609.81;5121856;27;20050;-53
2022/05/11 02:08:31;;;;;;;7.05;5.15;;;;;;;11.68;100.00;99604.28;5121908;27;20039;-53
2022/05/11 02:11:15;;;;;;;8.52;6.22;;;;;;;11.78;100.00;99603.06;5123130;28;20678;-53
2022/05/11 02:14:01;;;;;;;10.82;6.97;;;;;;;11.67;100.00;99602.56;5119375;27;20051;-51
2022/05/11 02:16:45;;;;;;;11.48;5.78;;;;;;;11.61;100.00;99595.75;5119287;28;20043;-51
2022/05/11 02:19:31;;;;;;;11.25;6.32;;;;;;;11.49;100.00;99590.03;5118834;28;20650;-52
2022/05/11 02:22:15;;;;;;;7.28;5.30;;;;;;;11.47;100.00;99584.84;5121672;28;20036;-52
2022/05/11 02:25:00;;;;;;;7.70;5.63;;;;;;;11.43;100.00;99585.84;5106851;27;20704;-51
2022/05/11 02:27:47;;;;;;;8.20;5.60;;;;;;;11.31;100.00;99588.84;5125128;27;20832;-52
2022/05/11 02:30:33;;;;;;;12.38;6.80;;;;;;;11.29;100.00;99590.69;5121667;27;20051;-50
2022/05/11 02:33:18;;;;;;;9.93;6.60;;;;;;;11.31;100.00;99586.22;5125830;27;20712;-51
2022/05/11 02:36:03;;;;;;;11.18;6.00;;;;;;;11.27;100.00;99582.00;5128117;27;20039;-53
2022/05/11 02:38:47;;;;;;;8.52;5.80;;;;;;;11.26;100.00;99577.66;5128472;27;20422;-52
2022/05/11 02:41:31;;;;;;;12.85;6.35;;;;;;;11.22;100.00;99569.03;5125129;27;20055;-52
2022/05/11 02:44:16;;;;;;;9.98;6.47;;;;;;;11.24;100.00;99575.06;5125341;27;20071;-53
2022/05/11 02:47:01;;;;;;;9.10;6.32;;;;;;;11.25;100.00;99566.31;5124089;27;20051;-52
2022/05/11 02:49:46;;;;;;;12.80;7.22;;;;;;;11.22;100.00;99569.03;5122900;27;20783;-53
2022/05/11 02:52:31;;;;;;;10.80;6.50;;;;;;;11.28;100.00;99583.69;5125665;27;20691;-51
2022/05/11 02:55:16;;;;;;;12.88;7.57;;;;;;;11.29;100.00;99586.28;5126519;27;20633;-52
2022/05/11 02:58:00;;;;;;;12.10;7.82;;;;;;;11.30;100.00;99590.63;5124680;27;20060;-52
2022/05/11 03:00:47;;;;;;;12.50;6.70;;;;;;;11.39;100.00;99592.09;5125401;27;20435;-51
2022/05/11 03:03:34;;;;;;;14.32;7.45;;;;;;;11.30;100.00;99588.00;5127568;27;20398;-51
2022/05/11 03:06:19;;;;;;;12.85;6.22;;;;;;;11.45;100.00;99574.41;5123837;27;20067;-52
2022/05/11 03:09:03;;;;;;;10.93;6.75;;;;;;;11.50;100.00;99576.00;5124220;27;20047;-51
2022/05/11 03:11:48;;;;;;;13.23;6.88;;;;;;;11.49;100.00;99572.53;5121408;27;20062;-52
2022/05/11 03:14:33;;;;;;;12.07;6.63;;;;;;;11.61;100.00;99569.53;5124335;27;20043;-51
2022/05/11 03:17:17;;;;;;;12.82;6.75;;;;;;;11.62;100.00;99573.84;5123492;27;20039;-51
2022/05/11 03:20:06;;;;;;;12.02;6.85;;;;;;;11.67;100.00;99565.84;5121393;27;20051;-52
2022/05/11 03:22:50;;;;;;;10.20;6.18;;;;;;;11.71;100.00;99570.06;5121348;27;20075;-52
2022/05/11 03:25:35;;;;;;;12.88;6.18;;;;;;;11.77;100.00;99572.50;5120113;27;20048;-51
2022/05/11 03:28:20;;;;;;;12.38;6.22;;;;;;;11.79;100.00;99569.81;5122105;27;20146;-51
2022/05/11 03:31:05;;;;;;;9.18;5.20;;;;;;;11.90;100.00;99571.19;5122970;27;20051;-52
2022/05/11 03:36:53;;;;;;;9.45;5.78;;;;;;;11.99;100.00;99567.41;5122633;27;21049;-52
2022/05/11 03:39:37;;;;;;;7.95;5.18;;;;;;;12.12;100.00;99566.06;5125154;27;20043;-51
2022/05/11 03:42:28;;;;;;;7.90;5.55;;;;;;;12.11;100.00;99564.34;5123551;27;20484;-51
2022/05/11 03:45:19;;;;;;;10.40;5.13;;;;;;;12.10;100.00;99577.53;5124475;27;20054;-53
2022/05/11 03:48:05;;;;;;;7.57;5.68;;;;;;;12.18;100.00;99567.59;5122751;27;20103;-52
2022/05/11 03:50:49;;;;;;;8.88;5.00;;;;;;;12.32;100.00;99573.25;5120472;27;20039;-52
2022/05/11 03:53:37;;;;;;;7.47;5.47;;;;;;;12.32;100.00;99575.00;5122935;27;20039;-51
2022/05/11 03:56:22;;;;;;;9.10;5.97;;;;;;;12.44;100.00;99569.28;5106514;27;20145;-51
2022/05/11 03:59:06;;;;;;;11.23;6.35;;;;;;;12.49;100.00;99563.88;5121105;27;20047;-51
2022/05/11 04:01:50;;;;;;;10.43;5.55;;;;;;;12.58;100.00;99567.03;5122775;27;20658;-53
2022/05/11 04:04:35;;;;;;;11.95;6.47;;;;;;;12.72;100.00;99563.88;5123551;27;20055;-51
2022/05/11 04:07:19;;;;;;;11.57;6.07;;;;;;;12.79;100.00;99561.88;5123933;27;20031;-51
2022/05/11 04:10:04;;;;;;;9.55;6.50;;;;;;;12.84;100.00;99565.19;5123401;27;20047;-53
2022/05/11 04:12:49;;;;;;;9.05;6.25;;;;;;;13.05;100.00;99572.25;5120625;27;20111;-52
2022/05/11 04:15:33;;;;;;;8.38;6.25;;;;;;;13.31;100.00;99573.03;5124099;27;20039;-52
2022/05/11 04:18:19;;;;;;;10.02;5.80;;;;;;;13.57;100.00;99567.56;5104919;27;20133;-53
2022/05/11 04:21:03;;;;;;;10.93;6.47;;;;;;;13.84;100.00;99577.00;5122985;27;20051;-52
2022/05/11 04:23:48;;;;;;;11.10;6.72;;;;;;;13.88;100.00;99573.34;5121440;27;20035;-52
2022/05/11 04:26:35;;;;;;;11.60;6.20;;;;;;;14.19;100.00;99567.59;5117374;27;20100;-52
2022/05/11 04:29:19;;;;;;;5.63;5.13;;;;;;;14.26;100.00;99562.00;5121303;27;20122;-52
2022/05/11 04:32:05;;;;;;;8.20;5.22;;;;;;;14.79;100.00;99564.97;5123660;27;20066;-53
2022/05/11 04:34:50;;;;;;;6.18;4.55;;;;;;;15.12;100.00;99571.28;5122693;27;20123;-53
2022/05/11 04:37:35;;;;;;;7.32;5.40;;;;;;;15.39;100.00;99565.63;5118794;27;20479;-52
2022/05/11 04:40:20;;;;;;;6.03;4.90;;;;;;;15.53;98.87;99570.22;5117186;27;20427;-52
2022/05/11 04:43:09;;;;;;;9.80;5.50;;;;;;;15.40;99.55;99569.97;5120493;27;20078;-52
2022/05/11 04:45:55;;;;;;;9.63;5.55;;;;;;;15.29;100.00;99567.00;5117602;27;20055;-52
2022/05/11 04:48:42;;;;;;;7.82;5.05;;;;;;;15.39;100.00;99568.25;5116309;27;20084;-53
2022/05/11 04:51:26;;;;;;;5.65;4.07;;;;;;;15.27;100.00;99561.78;5120749;27;20039;-52
2022/05/11 04:54:11;;;;;;;7.38;5.07;;;;;;;15.28;100.00;99567.94;5120273;27;20047;-55
2022/05/11 04:56:55;;;;;;;8.00;5.43;;;;;;;15.23;100.00;99578.69;5119455;27;20673;-53
2022/05/11 04:59:40;;;;;;;7.13;5.45;;;;;;;15.25;100.00;99571.56;5118803;27;20565;-53
2022/05/11 05:02:29;;;;;;;6.18;4.70;;;;;;;15.25;100.00;99565.44;5121933;27;20075;-52
2022/05/11 05:05:15;;;;;;;7.38;5.10;;;;;;;15.19;100.00;99572.72;5120787;27;20051;-52
2022/05/11 05:07:59;;;;;;;11.10;5.65;;;;;;;15.68;99.43;99572.13;5119347;27;20051;-52
2022/05/11 05:10:44;;;;;;;7.75;5.50;;;;;;;15.95;97.12;99574.31;5118032;27;20623;-54
2022/05/11 05:13:28;;;;;;;9.82;5.68;;;;;;;15.81;100.00;99580.31;5119207;27;20067;-53
2022/05/11 05:16:13;;;;;;;6.80;5.35;;;;;;;15.93;99.23;99584.13;5115799;27;20050;-52
2022/05/11 05:18:57;;;;;;;9.15;6.00;;;;;;;16.58;95.15;99588.63;5116067;27;20059;-52
2022/05/11 05:21:42;;;;;;;8.15;5.13;;;;;;;16.48;95.30;99589.19;5112865;27;20047;-53
2022/05/11 05:24:26;;;;;;;6.70;4.90;;;;;;;17.04;91.33;99585.31;5115428;27;20752;-52
2022/05/11 05:27:16;;;;;;;10.15;5.20;;;;;;;17.15;93.19;99590.84;5119210;27;20039;-53
2022/05/11 05:33:04;;;;;;;7.40;5.07;;;;;;;17.38;91.24;99596.66;5116368;27;20055;-53
2022/05/11 05:35:48;;;;;;;9.60;5.30;;;;;;;17.36;91.74;99587.97;5117793;27;20082;-53
2022/05/11 05:38:34;;;;;;;5.55;4.43;;;;;;;17.62;91.79;99589.97;5118251;27;20043;-53
2022/05/11 05:41:19;;;;;;;9.65;4.88;;;;;;;17.58;89.37;99585.81;5119766;27;20501;-53
2022/05/11 05:44:06;;;;;;;12.52;4.85;;;;;;;18.68;83.58;99589.81;5118629;27;20035;-54
2022/05/11 05:46:51;;;;;;;7.13;4.47;;;;;;;18.50;81.38;99601.59;5119240;27;20475;-54
2022/05/11 05:49:36;;;;;;;6.97;4.30;;;;;;;19.55;77.99;99591.41;5118298;27;20048;-54
2022/05/11 05:52:22;;;;;;;5.85;3.92;;;;;;;18.74;77.59;99588.63;5120436;27;20639;-53
2022/05/11 05:55:08;;;;;;;10.02;3.53;;;;;;;19.75;75.17;99584.81;5106057;27;20054;-52
2022/05/11 05:57:52;;;;;;;4.93;3.50;;;;;;;20.06;71.05;99591.59;5121467;27;20737;-54
2022/05/11 06:00:37;;;;;;;8.57;3.63;;;;;;;20.21;69.90;99594.16;5118453;27;20909;-60
2022/05/11 06:03:26;;;;;;;3.85;3.22;;;;;;;20.01;69.16;99599.00;5122181;27;20066;-53
2022/05/11 06:06:11;;;;;;;5.75;3.42;;;;;;;20.05;68.68;99599.66;5117022;27;20051;-53
2022/05/11 06:08:56;;;;;;;5.22;3.10;;;;;;;20.49;68.56;99593.97;5121326;27;20047;-54
2022/05/11 06:11:41;;;;;;;6.57;3.35;;;;;;;20.88;68.49;99596.63;5121144;27;20481;-54
2022/05/11 06:14:26;;;;;;;7.90;3.72;;;;;;;20.89;68.05;99591.19;5120701;28;20033;-54
2022/05/11 06:17:19;;;;;;;13.05;5.00;;;;;;;21.19;66.04;99596.13;5117558;27;20419;-53
2022/05/11 06:20:03;;;;;;;13.35;3.72;;;;;;;21.35;66.32;99593.25;5123821;28;20092;-55
2022/05/11 06:22:50;;;;;;;5.13;3.22;;;;;;;21.58;64.78;99590.69;5121880;28;20055;-54
2022/05/11 06:25:37;;;;;;;4.43;2.83;;;;;;;21.14;64.69;99598.28;5124940;28;20048;-55
2022/05/11 06:28:22;;;;;;;5.80;3.10;;;;;;;21.45;65.78;99594.28;5123072;27;20096;-55
2022/05/11 06:31:08;;;;;;;5.53;3.28;;;;;;;22.64;60.67;99592.34;5093285;28;21018;-53
2022/05/11 06:33:55;;;;;;;7.45;3.33;;;;;;;22.92;61.39;99592.00;5119413;27;20043;-55
2022/05/11 06:36:39;;;;;;;10.75;3.22;;;;;;;23.31;60.32;99591.50;5124009;28;20055;-54
2022/05/11 06:39:24;;;;;;;6.00;3.60;;;;;;;22.68;60.01;99592.09;5124829;28;20054;-55
2022/05/11 06:42:12;;;;;;;3.58;3.05;;;;;;;21.94;62.25;99587.94;5122650;28;20043;-55
2022/05/11 06:44:57;;;;;;;4.38;2.72;;;;;;;22.89;60.00;99598.44;5122188;27;20051;-53
2022/05/11 06:47:41;;;;;;;5.82;2.90;;;;;;;23.73;58.09;99594.31;5122098;28;20051;-55
2022/05/11 06:50:27;;;;;;;2.60;2.40;;;;;;;23.32;60.45;99592.34;5125045;28;20061;-53
2022/05/11 06:53:15;;;;;;;4.30;2.30;;;;;;;23.83;58.17;99589.06;5109132;28;20063;-53
2022/05/11 06:59:21;;;;;;;3.65;2.83;;;;;;;24.44;55.75;99583.03;5119774;27;20043;-53
2022/05/11 07:02:06;;;;;;;4.00;3.05;;;;;;;23.51;57.53;99581.84;5121069;27;20468;-55
2022/05/11 07:04:51;;;;;;;4.38;2.38;;;;;;;24.09;55.21;99578.84;5119487;27;20047;-55
2022/05/11 07:07:37;;;;;;;6.88;2.63;;;;;;;23.78;57.01;99588.56;5122545;28;20040;-55
2022/05/11 07:10:21;;;;;;;5.13;2.70;;;;;;;23.20;58.43;99586.16;5120198;27;20082;-54
2022/05/11 07:13:06;;;;;;;5.10;2.40;;;;;;;25.08;55.78;99587.25;5126028;27;20035;-55
2022/05/11 07:15:50;;;;;;;5.28;2.70;;;;;;;25.24;53.12;99590.28;5127323;27;20130;-56
2022/05/11 07:18:35;;;;;;;6.03;2.78;;;;;;;25.41;53.65;99578.03;5128205;27;20043;-55
2022/05/11 07:21:19;;;;;;;5.72;2.35;;;;;;;25.94;52.25;99575.00;5123997;27;20051;-55
2022/05/11 07:24:05;;;;;;;4.88;3.03;;;;;;;25.35;53.50;99582.13;5127221;27;20460;-53
2022/05/11 07:26:49;;;;;;;4.05;2.42;;;;;;;25.99;50.37;99567.34;5127804;27;20051;-55
2022/05/11 07:29:33;;;;;;;4.65;2.50;;;;;;;26.50;50.44;99568.84;5126452;27;20039;-55
2022/05/11 07:32:18;;;;;;;8.55;2.38;;;;;;;26.38;48.74;99567.28;5125736;27;20388;-54
2022/05/11 07:35:03;;;;;;;3.33;1.80;;;;;;;25.71;50.70;99568.22;5124277;27;20044;-53
2022/05/11 07:37:49;;;;;;;4.43;2.10;;;;;;;25.91;52.01;99561.03;5127052;27;20058;-54
2022/05/11 07:40:34;;;;;;;3.70;2.40;;;;;;;26.10;49.71;99567.22;5124055;27;20544;-54
2022/05/11 07:43:20;;;;;;;2.92;2.13;;;;;;;25.53;49.51;99566.19;5126961;27;20466;-54
2022/05/11 07:46:05;;;;;;;5.05;2.35;;;;;;;25.64;52.76;99575.94;5125869;27;20043;-55
2022/05/11 07:48:49;;;;;;;4.07;2.60;;;;;;;25.87;51.30;99564.00;5127728;27;20561;-53
2022/05/11 07:51:35;;;;;;;3.72;1.95;;;;;;;25.99;49.16;99561.16;5118020;27;20043;-54
2022/05/11 07:54:20;;;;;;;4.07;2.53;;;;;;;26.56;48.05;99562.88;5121641;27;20062;-54
2022/05/11 08:00:09;;;;;;;3.53;2.00;;;;;;;25.68;49.58;99558.59;5120334;27;20599;-54
2022/05/11 08:02:55;;;;;;;4.43;2.00;;;;;;;26.40;47.26;99549.19;5122022;27;20039;-53
2022/05/11 08:05:39;;;;;;;4.30;2.22;;;;;;;26.12;48.21;99548.28;5120404;27;20126;-55
2022/05/11 08:08:24;;;;;;;3.83;2.15;;;;;;;26.80;47.26;99550.78;5119812;27;20565;-54
2022/05/11 08:11:08;;;;;;;5.15;2.10;;;;;;;26.19;48.52;99553.91;5121148;27;20408;-52
2022/05/11 08:13:54;;;;;;;4.75;2.17;;;;;;;26.75;48.48;99545.03;5121720;27;20051;-55
2022/05/11 08:16:38;;;;;;;4.13;1.98;;;;;;;26.43;48.66;99550.75;5122697;27;20047;-54
2022/05/11 08:19:26;;;;;;;4.60;1.60;;;;;;;26.53;50.28;99563.19;5120216;27;20048;-53
2022/05/11 08:22:10;;;;;;;5.85;2.47;;;;;;;26.02;48.61;99559.03;5123060;27;20036;-53
2022/05/11 08:24:56;;;;;;;2.55;1.83;;;;;;;26.94;46.45;99562.84;5106907;27;20086;-54
2022/05/11 08:27:41;;;;;;;4.75;2.25;;;;;;;26.56;47.71;99557.53;5108315;27;20051;-54
2022/05/11 08:33:38;;;;;;;3.80;2.53;;;;;;;27.80;44.69;99559.81;5123747;27;20043;-53
2022/05/11 08:36:26;;;;;;;5.40;2.10;;;;;;;27.83;43.43;99548.75;5121681;27;20475;-53
2022/05/11 08:39:11;;;;;;;3.97;2.10;;;;;;;27.67;44.49;99549.41;5124365;27;20401;-54
2022/05/11 08:41:59;;;;;;;3.38;2.10;;;;;;;28.25;44.38;99551.56;5121355;27;20498;-55
2022/05/11 08:44:48;;;;;;;3.03;2.13;;;;;;;27.41;44.83;99547.47;5120011;27;20072;-54
2022/05/11 08:47:45;;;;;;;4.03;2.20;;;;;;;28.76;44.35;99555.28;5123132;27;20473;-53
2022/05/11 08:50:30;;;;;;;7.75;2.20;;;;;;;28.79;46.31;99549.53;5119443;27;20069;-55
2022/05/11 08:53:33;;;;;;;5.65;2.28;;;;;;;27.64;44.51;99549.72;5119746;27;20139;-53
2022/05/11 08:56:20;;;;;;;2.70;1.90;;;;;;;27.88;46.52;99547.25;5117811;27;20129;-55
2022/05/11 08:59:09;;;;;;;5.75;1.90;;;;;;;27.96;44.02;99550.03;5119501;27;20043;-54
2022/05/11 09:02:00;;;;;;;5.20;2.30;;;;;;;28.26;44.01;99537.09;5120496;27;20401;-54
2022/05/11 09:04:56;;;;;;;3.58;2.35;;;;;;;27.27;44.83;99535.41;5117346;27;20633;-54
2022/05/11 09:07:42;;;;;;;7.32;1.95;;;;;;;27.81;44.26;99531.91;5118315;27;20055;-54
2022/05/11 09:10:35;;;;;;;3.40;2.72;;;;;;;27.26;45.74;99535.53;5118307;27;20047;-54
2022/05/11 09:13:20;;;;;;;4.75;2.38;;;;;;;28.87;44.01;99540.66;5119667;27;20081;-54
2022/05/11 09:16:06;;;;;;;2.78;2.30;;;;;;;28.79;43.32;99535.22;5122753;27;20115;-55
2022/05/11 09:18:50;;;;;;;3.08;2.17;;;;;;;27.90;45.00;99537.19;5121513;27;20043;-54
2022/05/11 09:21:38;;;;;;;7.70;3.00;;;;;;;28.04;42.75;99535.78;5108492;27;20484;-54
2022/05/11 09:24:29;;;;;;;4.43;2.80;;;;;;;28.39;45.05;99532.16;5095462;27;20488;-54
2022/05/11 09:27:23;;;;;;;;;;;;;;;28.79;43.27;99537.91;5124650;27;20049;-53
2022/05/11 09:30:18;;;;;;;5.38;2.22;;;;;;;28.69;42.36;99529.97;5124415;27;19927;-53
2022/05/11 09:33:22;;;;;;;9.10;2.63;;;;;;;29.81;40.24;99524.22;5127254;27;20051;-53
2022/05/11 09:36:11;;;;;;;6.53;2.75;;;;;;;29.17;41.24;99524.94;5125426;27;20051;-53
2022/05/11 09:39:13;;;;;;;5.50;2.70;;;;;;;29.32;40.50;99534.09;5127033;27;20050;-54
2022/05/11 09:42:12;;;;;;;2.58;2.38;;;;;;;29.30;40.40;99528.00;5121088;27;20047;-53
2022/05/11 09:44:57;;;;;;;3.63;2.63;;;;;;;29.32;41.94;99521.44;5124426;27;20039;-53
2022/05/11 09:48:02;;;;;;;2.35;1.98;;;;;;;29.98;39.35;99518.81;5124604;27;20481;-54
2022/05/11 09:50:48;;;;;;;5.50;2.30;;;;;;;29.09;42.23;99520.41;5124774;27;20058;-53
2022/05/11 09:53:36;;;;;;;3.17;2.17;;;;;;;30.21;41.82;99510.88;5121515;27;20120;-53
2022/05/11 09:56:31;;;;;;;4.05;2.08;;;;;;;29.73;42.57;99507.16;5118503;27;20127;-53
2022/05/11 09:59:27;;;;;;;3.95;2.38;;;;;;;29.39;41.79;99505.44;5119853;27;20042;-54
2022/05/11 10:02:35;;;;;;;3.65;2.50;;;;;;;28.66;40.93;99514.13;5119263;27;20066;-53
2022/05/11 10:05:26;;;;;;;8.70;2.00;;;;;;;29.59;40.32;99506.81;5118728;27;20050;-53
2022/05/11 10:08:21;;;;;;;4.05;2.10;;;;;;;30.22;40.42;99502.59;5118392;27;20130;-55
2022/05/11 10:11:31;;;;;;;6.38;2.65;;;;;;;30.05;39.65;99490.94;5118350;27;20047;-54
2022/05/11 10:24:04;;;;;;;3.55;2.60;;;;;;;28.37;42.10;99492.91;5118144;28;20038;-53
2022/05/11 10:27:04;;;;;;;5.75;2.78;;;;;;;27.53;45.24;99485.38;5119437;28;20043;-55
2022/05/11 10:30:06;;;;;;;5.03;2.30;;;;;;;28.16;43.93;99486.06;5118058;28;20048;-53
2022/05/11 10:33:09;;;;;;;5.50;2.20;;;;;;;28.04;41.39;99489.19;5120819;27;20058;-53
2022/05/11 10:36:24;;;;;;;3.22;1.92;;;;;;;29.14;41.63;99480.28;5117374;27;20530;-53
2022/05/11 10:39:32;;;;;;;2.95;1.83;;;;;;;28.77;40.58;99477.97;5102378;28;20054;-54
2022/05/11 10:42:28;;;;;;;3.55;2.22;;;;;;;29.14;41.01;99474.06;5119079;28;20051;-53
2022/05/11 10:45:23;;;;;;;4.25;2.50;;;;;;;28.50;41.43;99484.41;5119802;27;20058;-53
2022/05/11 10:48:21;;;;;;;9.25;2.53;;;;;;;28.31;40.42;99474.72;5124507;27;20088;-54
2022/05/11 10:51:45;;;;;;;5.40;2.60;;;;;;;29.24;40.04;99470.19;5126270;27;20074;-53
2022/05/11 10:54:38;;;;;;;3.15;2.03;;;;;;;29.43;39.04;99463.63;5123613;27;20047;-54
2022/05/11 10:57:40;;;;;;;2.85;2.22;;;;;;;28.63;40.33;99468.66;5124127;27;20108;-52
2022/05/11 11:00:26;;;;;;;4.93;2.17;;;;;;;29.27;39.82;99469.84;5123486;27;20039;-54
2022/05/11 11:03:52;;;;;;;8.77;2.88;;;;;;;29.06;40.94;99467.66;5125002;27;20288;-55
2022/05/11 11:07:14;;;;;;;2.90;2.30;;;;;;;28.86;39.50;99467.06;5066177;28;20514;-53
2022/05/11 11:10:18;;;;;;;2.75;1.95;;;;;;;30.77;40.15;99463.06;5125617;27;20479;-54
2022/05/11 11:13:23;;;;;;;4.72;1.90;;;;;;;30.12;36.56;99457.88;5126734;27;20067;-53
2022/05/11 11:16:12;;;;;;;5.15;2.50;;;;;;;29.82;36.66;99454.88;5124177;27;20047;-53
2022/05/11 11:18:58;;;;;;;6.45;2.25;;;;;;;29.26;38.05;99460.09;5126018;27;20047;-53
2022/05/11 11:21:44;;;;;;;4.68;2.45;;;;;;;28.06;38.46;99463.81;5124748;27;20104;-54
2022/05/11 11:24:29;;;;;;;3.35;2.10;;;;;;;28.35;39.63;99458.06;5123712;27;20164;-53
2022/05/11 11:27:14;;;;;;;4.82;2.20;;;;;;;28.44;37.47;99448.22;5120594;27;20047;-54
2022/05/11 11:30:13;;;;;;;2.17;1.90;;;;;;;28.94;37.47;99458.16;5117433;27;20051;-54
2022/05/11 11:33:13;;;;;;;3.10;2.80;;;;;;;28.60;37.43;99452.81;5119520;27;20131;-53
2022/05/11 11:36:02;;;;;;;5.60;2.42;;;;;;;28.88;37.00;99446.16;5122211;27;20066;-54
2022/05/11 11:38:49;;;;;;;3.83;3.28;;;;;;;28.39;38.98;99448.69;5104352;27;20051;-52
2022/05/11 11:41:43;;;;;;;4.32;2.50;;;;;;;28.13;39.97;99450.56;5123391;27;20676;-53
2022/05/11 11:44:36;;;;;;;4.95;3.10;;;;;;;28.26;39.46;99433.97;5110478;27;20695;-53
2022/05/11 11:47:26;;;;;;;3.78;2.38;;;;;;;27.66;40.33;99440.13;5123843;27;20053;-53
2022/05/11 11:50:33;;;;;;;3.55;2.20;;;;;;;27.43;40.23;99437.94;5122200;27;20082;-54
2022/05/11 11:53:21;;;;;;;3.72;2.28;;;;;;;27.03;41.94;99439.19;5128431;27;20115;-54
2022/05/11 11:56:24;;;;;;;4.13;1.85;;;;;;;27.76;40.84;99446.25;5123812;27;20075;-53
2022/05/11 11:59:33;;;;;;;5.35;1.85;;;;;;;28.03;40.67;99436.38;5118669;27;20055;-53
2022/05/11 12:02:44;;;;;;;5.82;1.67;;;;;;;28.35;42.14;99439.22;5124506;27;21184;-53
2022/05/11 12:05:29;;;;;;;7.85;2.88;;;;;;;28.96;39.00;99423.81;5127130;27;20142;-53
2022/05/11 12:17:43;;;;;;;7.35;2.30;;;;;;;29.93;36.66;99424.84;5127923;27;20405;-54
2022/05/11 12:20:41;;;;;;;2.63;1.52;;;;;;;29.49;37.79;99414.41;5127846;27;20039;-52
2022/05/11 12:23:39;;;;;;;3.75;1.83;;;;;;;29.40;37.01;99412.72;5124446;27;20095;-53
2022/05/11 12:26:38;;;;;;;2.22;1.50;;;;;;;28.90;35.71;99410.97;5129401;27;20036;-54
2022/05/11 12:32:32;;;;;;;2.67;1.70;;;;;;;27.86;38.46;99419.28;5127530;27;20100;-54
2022/05/11 12:35:19;;;;;;;8.63;2.15;;;;;;;27.80;38.75;99409.16;5125792;27;20074;-53
2022/05/11 12:38:09;;;;;;;5.55;2.13;;;;;;;28.19;39.39;99410.38;5125266;27;20047;-53
2022/05/11 12:40:55;;;;;;;5.43;2.00;;;;;;;28.13;38.17;99412.88;5125280;27;20055;-53
2022/05/11 12:43:51;;;;;;;3.20;1.90;;;;;;;28.25;36.80;99405.38;5127166;27;20070;-53
2022/05/11 12:46:39;;;;;;;4.38;1.83;;;;;;;28.64;36.69;99398.47;5126437;27;20043;-53
2022/05/11 12:49:26;;;;;;;1.73;1.50;;;;;;;28.60;37.13;99391.72;5096363;27;20091;-54
2022/05/11 12:52:16;;;;;;;3.22;1.98;;;;;;;28.94;39.15;99387.25;5108264;27;20175;-53
2022/05/11 12:55:03;;;;;;;3.65;1.80;;;;;;;28.71;39.73;99392.41;5124007;27;20058;-54
2022/05/11 12:57:48;;;;;;;5.25;1.85;;;;;;;29.30;37.11;99385.09;5125250;27;20488;-52
2022/05/11 13:00:34;;;;;;;4.15;1.98;;;;;;;29.22;37.48;99385.94;5124836;27;20485;-53
2022/05/11 13:03:31;;;;;;;5.38;2.25;;;;;;;29.38;37.69;99378.84;5126141;27;20090;-52
2022/05/11 13:06:19;;;;;;;5.30;1.88;;;;;;;29.28;37.44;99373.63;5123315;27;20592;-53
2022/05/11 13:09:16;;;;;;;5.45;1.85;;;;;;;29.62;38.06;99370.78;5117101;27;20043;-54
2022/05/11 13:12:02;;;;;;;6.30;2.10;;;;;;;29.19;37.17;99370.09;5117842;27;20047;-53
2022/05/11 13:14:51;;;;;;;4.68;1.98;;;;;;;28.67;38.25;99370.34;5109982;27;20055;-52
2022/05/11 13:17:46;;;;;;;3.38;1.80;;;;;;;28.25;39.12;99367.66;5110325;27;20062;-54
2022/05/11 13:20:38;;;;;;;4.82;2.90;;;;;;;27.82;39.04;99362.25;5107993;27;20063;-53
2022/05/11 13:23:33;;;;;;;7.25;2.00;;;;;;;27.80;40.08;99368.78;5118122;27;20047;-54
2022/05/11 13:26:41;;;;;;;3.05;2.08;;;;;;;27.87;38.83;99368.00;5100582;27;20054;-52
2022/05/11 13:29:28;;;;;;;2.88;2.10;;;;;;;28.14;38.64;99350.81;5114210;27;20047;-53
2022/05/11 13:32:22;;;;;;;8.38;1.98;;;;;;;28.14;41.44;99356.19;5113843;27;20528;-53
2022/05/11 13:35:29;;;;;;;4.30;2.35;;;;;;;27.94;39.72;99349.34;5126062;27;20058;-54
2022/05/11 13:38:18;;;;;;;2.10;1.63;;;;;;;28.53;39.25;99352.97;5123232;27;20038;-53
2022/05/11 13:41:05;;;;;;;3.47;1.60;;;;;;;28.05;36.55;99350.94;5116261;27;20039;-53
2022/05/11 13:43:55;;;;;;;3.17;1.35;;;;;;;28.37;35.95;99337.59;5120112;27;20054;-54
2022/05/11 13:49:50;;;;;;;3.53;2.13;;;;;;;28.22;36.93;99338.38;5116148;27;20045;-54
2022/05/11 13:52:48;;;;;;;3.25;1.60;;;;;;;27.60;37.25;99331.34;5105731;27;20770;-53
2022/05/11 13:55:42;;;;;;;2.28;1.50;;;;;;;27.76;37.35;99327.06;5118470;27;20042;-53